Time;durP1;ratioP1;P1;durP2;ratioP2;P2;SDS_P1;SDS_P2;PMS_P1;PMS_P2;Temp;Humidity;BMP_temperature;BMP_pressure;BME280_temperature;BME280_humidity;BME280_pressure;Samples;Min_cycle;Max_cycle;Signal;HPM_P1;HPM_P2
2022/12/26 00:01:38;;;;;;;;;;;;;;;-3.54;63.61;100905.31;5098682;28;19928;-65
2022/12/26 00:04:04;;;;;;;;;;;;;;;-3.35;63.44;100941.72;5102013;28;20040;-65
2022/12/26 00:06:30;;;;;;;;;;;;;;;-3.35;63.58;100939.06;5101988;28;20014;-66
2022/12/26 00:08:56;;;;;;;;;;;;;;;-3.36;63.82;100936.53;5106357;28;19927;-66
2022/12/26 00:11:24;;;;;;;;;;;;;;;-3.37;63.70;100938.38;5105779;28;19973;-66
2022/12/26 00:13:52;;;;;;;;;;;;;;;-3.36;63.57;100940.06;5096989;28;19935;-65
2022/12/26 00:16:19;;;;;;;;;;;;;;;-3.35;63.59;100932.88;5096361;28;19959;-66
2022/12/26 00:18:45;;;;;;;;;;;;;;;-3.36;63.67;100941.88;5104089;28;20306;-66
2022/12/26 00:21:12;;;;;;;;;;;;;;;-3.39;63.99;100944.88;5106318;28;19961;-65
2022/12/26 00:23:38;;;;;;;;;;;;;;;-3.33;63.80;100942.41;5105280;28;19928;-65
2022/12/26 00:26:04;;;;;;;;;;;;;;;-3.30;64.00;100941.28;5105469;28;19996;-64
2022/12/26 00:28:31;;;;;;;;;;;;;;;-3.29;63.90;100949.13;5106374;28;19927;-65
2022/12/26 00:30:57;;;;;;;;;;;;;;;-3.30;64.00;100955.47;5110953;28;20127;-64
2022/12/26 00:33:23;;;;;;;;;;;;;;;-3.28;64.04;100955.34;5106707;28;19981;-65
2022/12/26 00:35:49;;;;;;;;;;;;;;;-3.29;64.19;100957.16;5108501;28;20426;-65
2022/12/26 00:38:15;;;;;;;;;;;;;;;-3.26;64.06;100957.88;5104639;28;19981;-64
2022/12/26 00:40:42;;;;;;;;;;;;;;;-3.28;64.34;100961.53;5104460;28;20369;-66
2022/12/26 00:43:08;;;;;;;;;;;;;;;-3.26;64.24;100963.22;5101173;28;19928;-65
2022/12/26 00:45:35;;;;;;;;;;;;;;;-3.26;64.28;100963.22;5105131;28;19927;-65
2022/12/26 00:48:01;;;;;;;;;;;;;;;-3.30;64.39;100971.53;5081119;28;19950;-65
2022/12/26 00:50:26;;;;;;;;;;;;;;;-3.31;64.43;100975.19;5099658;28;19927;-65
2022/12/26 00:52:52;;;;;;;;;;;;;;;-3.30;64.23;100971.53;5105415;28;20108;-65
2022/12/26 00:55:18;;;;;;;;;;;;;;;-3.28;64.28;100974.91;5106399;28;19928;-67
2022/12/26 00:57:43;;;;;;;;;;;;;;;-3.28;64.28;100972.25;5104047;28;19981;-65
2022/12/26 01:00:10;;;;;;;;;;;;;;;-3.25;64.54;100972.91;5102952;28;19928;-67
2022/12/26 01:02:37;;;;;;;;;;;;;;;-3.24;64.10;100983.44;5106728;28;20390;-65
2022/12/26 01:05:06;;;;;;;;;;;;;;;-3.26;63.83;100977.41;5105296;28;19935;-66
2022/12/26 01:07:33;;;;;;;;;;;;;;;-3.28;63.70;100976.72;5105935;28;20340;-65
2022/12/26 01:09:59;;;;;;;;;;;;;;;-3.28;63.78;100980.25;5104193;28;20369;-66
2022/12/26 01:12:26;;;;;;;;;;;;;;;-3.26;63.85;100979.28;5100483;28;20027;-66
2022/12/26 01:14:53;;;;;;;;;;;;;;;-3.31;63.86;100979.72;5105005;28;20456;-66
2022/12/26 01:17:19;;;;;;;;;;;;;;;-3.32;64.11;100970.84;5105697;28;20390;-66
2022/12/26 01:19:46;;;;;;;;;;;;;;;-3.28;64.11;100980.25;5102079;28;19955;-65
2022/12/26 01:22:12;;;;;;;;;;;;;;;-3.28;64.07;100976.72;5097172;28;20322;-66
2022/12/26 01:24:38;;;;;;;;;;;;;;;-3.29;64.24;100980.41;5082956;28;19935;-64
2022/12/26 01:27:04;;;;;;;;;;;;;;;-3.29;64.40;100970.53;5083705;28;19935;-66
2022/12/26 01:29:29;;;;;;;;;;;;;;;-3.33;64.48;100971.00;5083056;28;19978;-66
2022/12/26 01:31:55;;;;;;;;;;;;;;;-3.32;64.50;100978.88;5085693;28;19927;-66
2022/12/26 01:34:21;;;;;;;;;;;;;;;-3.33;64.57;100973.69;5085609;28;19928;-65
2022/12/26 01:36:48;;;;;;;;;;;;;;;-3.36;64.61;100973.97;5086053;28;19928;-65
2022/12/26 01:39:14;;;;;;;;;;;;;;;-3.36;64.67;100982.84;5084646;28;19934;-65
2022/12/26 01:41:40;;;;;;;;;;;;;;;-3.40;64.82;100983.31;5085375;28;19957;-66
2022/12/26 01:44:26;;;;;;;;;;;;;;;-3.46;64.80;100985.63;5085035;28;19974;-66
2022/12/26 01:46:52;;;;;;;;;;;;;;;-3.45;65.10;100986.44;5081764;28;20023;-65
2022/12/26 01:49:20;;;;;;;;;;;;;;;-3.40;65.00;100983.31;5082235;28;20023;-65
2022/12/26 01:51:48;;;;;;;;;;;;;;;-3.43;64.71;100984.47;5084532;28;20312;-66
2022/12/26 01:54:15;;;;;;;;;;;;;;;-3.45;64.88;100984.63;5082072;28;20455;-66
2022/12/26 01:56:42;;;;;;;;;;;;;;;-3.42;64.80;100986.16;5082665;28;19928;-65
2022/12/26 01:59:10;;;;;;;;;;;;;;;-3.46;64.69;100982.09;5084919;28;19934;-66
2022/12/26 02:01:37;;;;;;;;;;;;;;;-3.51;64.87;100979.03;5083297;28;19927;-66
2022/12/26 02:06:48;;;;;;;;;;;;;;;-3.45;64.94;100989.13;5082901;28;19928;-65
2022/12/26 02:09:15;;;;;;;;;;;;;;;-3.39;64.89;100988.53;5083244;28;20361;-65
2022/12/26 02:11:44;;;;;;;;;;;;;;;-3.49;64.95;100977.06;5083352;28;19928;-65
2022/12/26 02:14:09;;;;;;;;;;;;;;;-3.45;64.97;100987.28;5083151;28;19928;-65
2022/12/26 02:16:36;;;;;;;;;;;;;;;-3.45;64.90;100983.75;5081828;28;20308;-65
2022/12/26 02:19:03;;;;;;;;;;;;;;;-3.48;64.63;100976.91;5083473;28;19967;-65
2022/12/26 02:21:40;;;;;;;;;;;;;;;-3.50;64.47;100980.72;5082152;28;19934;-65
2022/12/26 02:24:26;;;;;;;;;;;;;;;-3.54;64.69;100968.66;5088566;28;19927;-65
2022/12/26 02:27:10;;;;;;;;;;;;;;;-3.52;64.68;100964.00;5101389;28;20232;-65
2022/12/26 02:29:54;;;;;;;;;;;;;;;-3.49;64.55;100977.91;5087442;28;20457;-65
2022/12/26 02:32:27;;;;;;;;;;;;;;;-3.49;64.70;100980.56;5104860;28;20421;-65
2022/12/26 02:34:59;;;;;;;;;;;;;;;-3.50;64.70;100967.34;5100971;27;19927;-65
2022/12/26 02:37:30;;;;;;;;;;;;;;;-3.56;64.55;100972.31;5101872;28;20391;-64
2022/12/26 02:40:02;;;;;;;;;;;;;;;-3.49;64.88;100985.06;5103364;28;19928;-65
2022/12/26 02:42:34;;;;;;;;;;;;;;;-3.45;64.90;100975.75;5103206;28;19927;-66
2022/12/26 02:47:52;;;;;;;;;;;;;;;-3.31;64.35;100990.41;5082350;28;20319;-66
2022/12/26 03:17:18;;;;;;;;;;;;;;;-3.34;63.56;100980.03;5098642;28;19932;-67
2022/12/26 03:18:20;;;;;;;;;;;;;;;-3.35;63.65;100983.72;5090618;28;19932;-67
2022/12/26 03:20:47;;;;;;;;;;;;;;;-3.38;64.06;100992.00;5083674;28;20318;-66
2022/12/26 03:23:14;;;;;;;;;;;;;;;-3.38;64.13;100997.38;5082390;28;19928;-67
2022/12/26 03:28:26;;;;;;;;;;;;;;;-3.54;64.19;101001.56;5083710;28;20296;-66
2022/12/26 03:30:52;;;;;;;;;;;;;;;-3.54;64.20;100995.41;5082063;28;19935;-67
2022/12/26 03:36:10;;;;;;;;;;;;;;;-3.54;64.19;100998.06;5082409;28;20030;-67
2022/12/26 03:38:50;;;;;;;;;;;;;;;-3.52;64.18;100998.75;5085323;28;20387;-67
2022/12/26 04:20:37;;;;;;;;;;;;;;;-3.65;63.66;101008.00;5091794;28;20576;-66
2022/12/26 04:45:21;;;;;;;;;;;;;;;-3.73;64.33;101007.91;5104989;28;20314;-67
2022/12/26 04:50:35;;;;;;;;;;;;;;;-3.77;64.55;101017.22;5087048;28;19928;-66
2022/12/26 04:53:04;;;;;;;;;;;;;;;-3.77;64.69;101011.88;5083621;28;19928;-66
2022/12/26 04:55:31;;;;;;;;;;;;;;;-3.78;64.47;101018.19;5105408;28;19996;-66
2022/12/26 04:57:58;;;;;;;;;;;;;;;-3.83;64.35;101015.97;5105264;28;19927;-67
2022/12/26 05:00:26;;;;;;;;;;;;;;;-3.81;64.62;101019.38;5105940;28;19994;-67
2022/12/26 05:11:10;;;;;;;;;;;;;;;-3.82;64.06;101031.06;5105112;28;19928;-67
2022/12/26 05:13:38;;;;;;;;;;;;;;;-3.91;64.14;101032.75;5104208;28;20004;-67
2022/12/26 05:29:55;;;;;;;;;;;;;;;-4.07;64.82;101044.09;5103966;28;19981;-66
2022/12/26 05:35:05;;;;;;;;;;;;;;;-3.91;64.94;101051.47;5105988;28;20079;-66
2022/12/26 05:37:31;;;;;;;;;;;;;;;-3.82;64.76;101046.22;5086843;28;20393;-66
2022/12/26 05:39:57;;;;;;;;;;;;;;;-3.82;64.67;101048.91;5079705;28;20030;-66
2022/12/26 05:42:22;;;;;;;;;;;;;;;-3.81;64.82;101046.09;5083944;28;20039;-66
2022/12/26 05:44:48;;;;;;;;;;;;;;;-3.86;64.80;101040.34;5096701;28;19963;-66
2022/12/26 05:47:16;;;;;;;;;;;;;;;-3.97;64.92;101033.38;5081113;28;20023;-66
2022/12/26 05:49:41;;;;;;;;;;;;;;;-4.02;65.11;101041.00;5084773;28;19928;-66
2022/12/26 05:52:07;;;;;;;;;;;;;;;-4.06;65.25;101034.25;5095802;28;20371;-66
2022/12/26 05:54:33;;;;;;;;;;;;;;;-4.09;65.30;101043.41;5095849;28;19943;-67
2022/12/26 05:57:00;;;;;;;;;;;;;;;-4.12;65.53;101049.06;5098766;28;19964;-67
2022/12/26 05:59:26;;;;;;;;;;;;;;;-4.15;65.40;101044.00;5092732;28;19928;-67
2022/12/26 06:01:51;;;;;;;;;;;;;;;-4.16;65.34;101051.19;5096698;28;19954;-67
2022/12/26 06:04:18;;;;;;;;;;;;;;;-4.18;65.26;101049.63;5086579;28;20031;-66
2022/12/26 06:06:44;;;;;;;;;;;;;;;-4.28;65.49;101053.22;5084585;28;19928;-67
2022/12/26 06:09:10;;;;;;;;;;;;;;;-4.36;65.77;101052.25;5086051;28;20497;-66
2022/12/26 06:11:37;;;;;;;;;;;;;;;-4.41;65.79;101047.34;5083073;28;19927;-66
2022/12/26 06:14:03;;;;;;;;;;;;;;;-4.48;65.85;101059.56;5088200;28;20330;-66
2022/12/26 06:16:30;;;;;;;;;;;;;;;-4.53;66.05;101054.66;5092503;28;20425;-66
2022/12/26 06:18:56;;;;;;;;;;;;;;;-4.52;66.27;101052.84;5090467;28;19963;-66
2022/12/26 06:21:23;;;;;;;;;;;;;;;-4.47;65.86;101053.25;5086788;28;19978;-67
2022/12/26 06:23:49;;;;;;;;;;;;;;;-4.44;65.83;101059.16;5097828;28;19928;-67
2022/12/26 06:26:15;;;;;;;;;;;;;;;-4.42;65.83;101065.19;5091930;28;20461;-67
2022/12/26 06:28:41;;;;;;;;;;;;;;;-4.39;65.88;101055.19;5099258;28;20264;-66
2022/12/26 06:31:07;;;;;;;;;;;;;;;-4.42;65.78;101059.84;5093856;28;20041;-66
2022/12/26 06:33:33;;;;;;;;;;;;;;;-4.48;65.83;101065.78;5100770;28;19932;-65
2022/12/26 06:36:03;;;;;;;;;;;;;;;-4.57;66.21;101069.31;5103199;28;19934;-65
2022/12/26 06:38:30;;;;;;;;;;;;;;;-4.63;66.45;101077.91;5102996;28;19992;-65
2022/12/26 06:40:56;;;;;;;;;;;;;;;-4.67;66.69;101082.66;5100196;28;19954;-66
2022/12/26 06:43:21;;;;;;;;;;;;;;;-4.63;66.83;101083.22;5090484;28;20386;-66
2022/12/26 06:45:53;;;;;;;;;;;;;;;-4.61;67.10;101081.25;5084242;28;20357;-67
2022/12/26 06:48:18;;;;;;;;;;;;;;;-4.55;66.72;101091.34;5084229;28;20216;-65
2022/12/26 06:50:44;;;;;;;;;;;;;;;-4.44;66.61;101099.22;5084188;28;19935;-65
2022/12/26 06:53:10;;;;;;;;;;;;;;;-4.33;66.39;101108.03;5098367;28;20419;-66
2022/12/26 06:55:37;;;;;;;;;;;;;;;-4.26;66.17;101106.47;5090428;28;19950;-66
2022/12/26 06:58:02;;;;;;;;;;;;;;;-4.13;65.76;101100.81;5086567;28;20162;-66
2022/12/26 07:00:28;;;;;;;;;;;;;;;-4.03;65.32;101106.13;5082858;28;19928;-67
2022/12/26 07:02:54;;;;;;;;;;;;;;;-3.98;65.02;101109.19;5085230;28;19935;-65
2022/12/26 07:05:20;;;;;;;;;;;;;;;-3.96;65.02;101101.88;5085652;28;20332;-66
2022/12/26 07:07:49;;;;;;;;;;;;;;;-3.89;64.76;101108.31;5085330;28;20399;-65
2022/12/26 07:10:15;;;;;;;;;;;;;;;-3.77;64.76;101111.63;5098536;28;20035;-65
2022/12/26 07:12:42;;;;;;;;;;;;;;;-3.70;64.54;101109.22;5086204;28;20022;-66
2022/12/26 07:15:09;;;;;;;;;;;;;;;-3.65;64.49;101111.44;5081697;28;20026;-66
2022/12/26 07:17:34;;;;;;;;;;;;;;;-3.54;64.49;101108.53;5092291;28;19927;-65
2022/12/26 07:20:00;;;;;;;;;;;;;;;-3.46;64.16;101105.97;5095351;28;20321;-66
2022/12/26 07:22:26;;;;;;;;;;;;;;;-3.36;63.85;101119.28;5097152;28;19935;-66
2022/12/26 07:24:51;;;;;;;;;;;;;;;-3.34;63.24;101106.59;5083078;28;19928;-65
2022/12/26 07:27:17;;;;;;;;;;;;;;;-3.26;63.05;101110.34;5094792;28;19928;-66
2022/12/26 07:29:45;;;;;;;;;;;;;;;-3.24;62.93;101106.53;5103599;28;19958;-65
2022/12/26 07:32:11;;;;;;;;;;;;;;;-3.15;62.71;101110.13;5099753;28;19928;-66
2022/12/26 07:34:37;;;;;;;;;;;;;;;-3.11;62.51;101116.00;5103326;28;19935;-66
2022/12/26 07:37:03;;;;;;;;;;;;;;;-3.16;62.69;101116.47;5090830;28;19928;-66
2022/12/26 07:39:28;;;;;;;;;;;;;;;-3.11;62.74;101114.19;5090479;28;19928;-66
2022/12/26 07:41:57;;;;;;;;;;;;;;;-3.13;62.75;101113.47;5087321;28;19975;-65
2022/12/26 07:44:23;;;;;;;;;;;;;;;-3.14;62.60;101120.69;5099221;28;19928;-66
2022/12/26 07:46:50;;;;;;;;;;;;;;;-3.14;62.88;101115.34;5088391;28;19934;-67
2022/12/26 07:49:15;;;;;;;;;;;;;;;-3.14;62.91;101117.16;5082791;28;19934;-66
2022/12/26 07:51:41;;;;;;;;;;;;;;;-3.09;63.24;101122.06;5099556;28;19928;-65
2022/12/26 07:54:07;;;;;;;;;;;;;;;-3.07;63.18;101112.03;5097852;28;19931;-66
2022/12/26 07:56:33;;;;;;;;;;;;;;;-3.15;63.12;101120.81;5089253;28;19928;-66
2022/12/26 07:58:59;;;;;;;;;;;;;;;-3.25;62.96;101125.41;5084976;28;20315;-66
2022/12/26 08:01:25;;;;;;;;;;;;;;;-3.32;62.84;101125.19;5103555;28;19928;-66
2022/12/26 08:03:52;;;;;;;;;;;;;;;-3.36;63.04;101131.81;5103555;28;19932;-66
2022/12/26 08:06:18;;;;;;;;;;;;;;;-3.42;63.25;101120.72;5082042;28;19928;-66
2022/12/26 08:08:43;;;;;;;;;;;;;;;-3.39;63.24;101124.94;5083450;28;19954;-65
2022/12/26 08:11:13;;;;;;;;;;;;;;;-3.43;62.88;101128.91;5083315;28;19974;-65
2022/12/26 08:13:38;;;;;;;;;;;;;;;-3.47;63.40;101135.53;5085788;28;19932;-66
2022/12/26 08:16:05;;;;;;;;;;;;;;;-3.40;63.52;101131.28;5083496;28;19928;-66
2022/12/26 08:18:31;;;;;;;;;;;;;;;-3.30;63.16;101132.03;4746465;28;10000581;-65
2022/12/26 08:20:59;;;;;;;;;;;;;;;-3.33;63.09;101135.03;5087178;28;20033;-66
2022/12/26 08:23:24;;;;;;;;;;;;;;;-3.36;62.93;101134.47;5067169;28;19928;-66
2022/12/26 08:25:50;;;;;;;;;;;;;;;-3.42;63.32;101143.97;5095130;28;19939;-66
2022/12/26 08:28:16;;;;;;;;;;;;;;;-3.45;63.67;101141.56;5099585;28;19954;-65
2022/12/26 08:30:42;;;;;;;;;;;;;;;-3.42;63.75;101130.59;5096098;28;19981;-66
2022/12/26 08:33:08;;;;;;;;;;;;;;;-3.41;63.66;101129.59;5079339;28;19928;-66
2022/12/26 08:35:34;;;;;;;;;;;;;;;-3.43;63.93;101127.06;5100237;28;20284;-65
2022/12/26 08:38:02;;;;;;;;;;;;;;;-3.42;63.97;101128.75;5100688;28;19932;-66
2022/12/26 08:40:27;;;;;;;;;;;;;;;-3.36;63.87;101129.13;5106442;28;19939;-65
2022/12/26 08:42:53;;;;;;;;;;;;;;;-3.29;64.02;101128.38;5102914;28;19931;-65
2022/12/26 08:45:19;;;;;;;;;;;;;;;-3.18;63.88;101126.47;5103792;28;19928;-66
2022/12/26 08:47:44;;;;;;;;;;;;;;;-3.22;63.60;101130.47;5104920;28;20309;-65
2022/12/26 08:50:12;;;;;;;;;;;;;;;-3.30;63.49;101129.38;5097875;28;20460;-66
2022/12/26 08:52:37;;;;;;;;;;;;;;;-3.32;63.80;101131.34;5097254;28;19965;-66
2022/12/26 08:55:05;;;;;;;;;;;;;;;-3.41;63.99;101129.59;5102795;28;19927;-65
2022/12/26 08:57:31;;;;;;;;;;;;;;;-3.46;64.23;101123.84;5098468;28;20018;-65
2022/12/26 08:59:56;;;;;;;;;;;;;;;-3.43;64.10;101118.22;5103145;28;20316;-65
2022/12/26 09:02:22;;;;;;;;;;;;;;;-3.41;64.10;101126.94;5099020;28;19927;-65
2022/12/26 09:04:48;;;;;;;;;;;;;;;-3.65;64.27;101093.56;5095306;28;19981;-66
2022/12/26 09:07:13;;;;;;;;;;;;;;;-3.44;64.46;101124.53;5091945;28;20472;-65
2022/12/26 09:09:39;;;;;;;;;;;;;;;-3.37;64.25;101120.28;5099193;28;19928;-65
2022/12/26 09:12:07;;;;;;;;;;;;;;;-3.39;64.01;101126.75;5092454;28;19928;-66
2022/12/26 09:14:32;;;;;;;;;;;;;;;-3.40;64.24;101133.97;5097387;28;19935;-66
2022/12/26 09:16:58;;;;;;;;;;;;;;;-3.42;63.74;101131.41;5089091;28;19955;-65
2022/12/26 09:19:28;;;;;;;;;;;;;;;-3.49;63.89;101132.16;5070889;28;19963;-65
2022/12/26 09:22:49;;;;;;;;;;;;;;;-3.53;64.29;101136.13;5087544;28;19931;-66
2022/12/26 09:24:40;;;;;;;;;;;;;;;-3.51;64.22;101126.13;5092368;28;20034;-65
2022/12/26 09:27:07;;;;;;;;;;;;;;;-3.40;64.13;101136.63;5090528;28;20022;-66
2022/12/26 09:29:33;;;;;;;;;;;;;;;-3.36;63.61;101134.47;5099054;28;19934;-66
2022/12/26 09:31:58;;;;;;;;;;;;;;;-3.34;63.76;101132.53;5104997;28;19928;-65
2022/12/26 09:34:24;;;;;;;;;;;;;;;-3.33;63.80;101128.84;5082397;28;19951;-65
2022/12/26 09:36:50;;;;;;;;;;;;;;;-3.27;63.74;101130.91;5095469;28;20047;-66
2022/12/26 09:39:16;;;;;;;;;;;;;;;-3.20;63.83;101123.97;5100786;28;19928;-65
2022/12/26 09:41:53;;;;;;;;;;;;;;;-3.29;63.66;101120.34;5103299;28;19928;-65
2022/12/26 09:44:22;;;;;;;;;;;;;;;-3.36;63.92;101115.75;5104427;28;19928;-65
2022/12/26 09:46:52;;;;;;;;;;;;;;;-3.39;64.06;101114.25;5108493;28;19931;-66
2022/12/26 09:49:21;;;;;;;;;;;;;;;-3.33;64.10;101116.31;5106812;28;20450;-65
2022/12/26 09:51:49;;;;;;;;;;;;;;;-3.23;63.91;101113.56;5090546;28;19934;-66
2022/12/26 09:54:24;;;;;;;;;;;;;;;-3.20;63.82;101109.75;5083427;28;19928;-65
2022/12/26 09:56:52;;;;;;;;;;;;;;;-3.18;63.57;101118.47;5084996;28;19939;-65
2022/12/26 09:59:18;;;;;;;;;;;;;;;-3.20;63.54;101112.41;5084883;28;19928;-66
2022/12/26 10:01:49;;;;;;;;;;;;;;;-3.19;63.13;101103.41;4384181;28;10000722;-65
2022/12/26 10:04:18;;;;;;;;;;;;;;;-3.28;63.01;101097.13;5101138;28;19934;-65
2022/12/26 10:06:47;;;;;;;;;;;;;;;-3.28;63.31;101100.66;5093358;28;20529;-66
2022/12/26 10:09:19;;;;;;;;;;;;;;;-3.20;63.45;101097.22;5094787;28;19948;-65
2022/12/26 10:11:51;;;;;;;;;;;;;;;-3.13;63.11;101090.25;5097858;28;19927;-66
2022/12/26 10:14:20;;;;;;;;;;;;;;;-3.14;63.12;101103.78;5084489;28;19951;-65
2022/12/26 10:16:51;;;;;;;;;;;;;;;-3.19;63.33;101101.56;5092979;28;19927;-67
2022/12/26 10:19:25;;;;;;;;;;;;;;;-3.23;63.40;101092.16;5086280;28;19998;-65
2022/12/26 10:21:54;;;;;;;;;;;;;;;-3.28;63.56;101097.13;5066888;28;20410;-65
2022/12/26 10:24:21;;;;;;;;;;;;;;;-3.33;63.47;101099.41;5098819;28;20202;-65
2022/12/26 10:26:51;;;;;;;;;;;;;;;-3.36;63.35;101095.22;5081500;28;20491;-65
2022/12/26 10:29:19;;;;;;;;;;;;;;;-3.42;63.66;101098.50;5101688;28;19928;-65
2022/12/26 10:31:47;;;;;;;;;;;;;;;-3.36;63.85;101091.69;5097074;28;20295;-66
2022/12/26 10:34:17;;;;;;;;;;;;;;;-3.37;63.90;101090.00;5079929;28;19966;-65
2022/12/26 10:36:46;;;;;;;;;;;;;;;-3.39;64.05;101087.50;5079110;28;19928;-65
2022/12/26 10:39:17;;;;;;;;;;;;;;;-3.33;64.06;101094.91;5078671;28;19959;-65
2022/12/26 10:41:45;;;;;;;;;;;;;;;-3.23;63.98;101089.47;5076371;28;19928;-66
2022/12/26 10:44:11;;;;;;;;;;;;;;;-3.25;63.65;101094.13;5079231;28;19928;-66
2022/12/26 10:46:47;;;;;;;;;;;;;;;-3.29;63.58;101085.56;5082871;28;19928;-65
2022/12/26 10:49:14;;;;;;;;;;;;;;;-3.25;63.87;101087.97;5082380;28;19928;-66
2022/12/26 10:51:42;;;;;;;;;;;;;;;-3.28;63.48;101079.25;5082426;28;20420;-65
2022/12/26 10:54:11;;;;;;;;;;;;;;;-3.30;63.72;101088.41;5081320;28;19935;-66
2022/12/26 10:56:37;;;;;;;;;;;;;;;-3.31;63.81;101084.06;5081933;28;19935;-65
2022/12/26 10:59:03;;;;;;;;;;;;;;;-3.35;63.72;101088.03;5083311;28;20027;-66
2022/12/26 11:01:33;;;;;;;;;;;;;;;-3.39;63.76;101082.13;5082828;28;19928;-65
2022/12/26 11:03:59;;;;;;;;;;;;;;;-3.45;63.87;101085.41;5081376;28;20414;-65
2022/12/26 11:06:27;;;;;;;;;;;;;;;-3.49;64.23;101084.03;5082480;28;19936;-66
2022/12/26 11:08:54;;;;;;;;;;;;;;;-3.52;64.28;101079.81;5081307;28;19970;-65
2022/12/26 11:11:22;;;;;;;;;;;;;;;-3.55;64.25;101085.47;5080082;28;19928;-65
2022/12/26 11:13:51;;;;;;;;;;;;;;;-3.58;64.63;101081.28;5080986;28;19955;-65
2022/12/26 11:16:23;;;;;;;;;;;;;;;-3.61;64.59;101084.22;5082282;28;20395;-65
2022/12/26 11:18:49;;;;;;;;;;;;;;;-3.63;64.78;101082.72;5085196;28;20600;-66
2022/12/26 11:21:19;;;;;;;;;;;;;;;-3.58;64.55;101083.09;5081997;28;19928;-66
2022/12/26 11:23:45;;;;;;;;;;;;;;;-3.56;64.75;101087.31;5081251;28;20353;-66
2022/12/26 11:26:20;;;;;;;;;;;;;;;-3.54;64.57;101089.00;5083512;28;19935;-66
2022/12/26 11:28:46;;;;;;;;;;;;;;;-3.60;64.78;101088.59;5081334;28;19963;-65
2022/12/26 11:31:18;;;;;;;;;;;;;;;-3.60;64.88;101085.91;5081137;28;20358;-65
2022/12/26 11:33:45;;;;;;;;;;;;;;;-3.56;64.92;101076.63;5082047;28;20342;-65
2022/12/26 11:36:17;;;;;;;;;;;;;;;-3.62;64.83;101074.53;5082167;28;20458;-66
2022/12/26 11:38:46;;;;;;;;;;;;;;;-3.72;65.00;101076.44;5081409;28;19928;-66
2022/12/26 11:41:32;;;;;;;;;;;;;;;-3.75;65.26;101084.72;5083747;28;19927;-65
2022/12/26 11:44:02;;;;;;;;;;;;;;;-3.80;65.23;101073.66;5085007;28;19928;-65
2022/12/26 11:46:35;;;;;;;;;;;;;;;-3.81;65.29;101071.97;5084111;28;20030;-66
2022/12/26 11:49:02;;;;;;;;;;;;;;;-3.79;65.28;101067.31;5088853;28;19928;-70
2022/12/26 11:51:36;;;;;;;;;;;;;;;-3.86;65.28;101072.41;5066517;28;20013;-67
2022/12/26 11:54:17;;;;;;;;;;;;;;;-3.97;65.45;101081.47;5083790;28;20394;-66
2022/12/26 11:56:43;;;;;;;;;;;;;;;-3.97;65.50;101076.13;5076182;28;19994;-66
2022/12/26 11:59:16;;;;;;;;;;;;;;;-3.95;65.64;101084.84;5093330;28;19959;-66
2022/12/26 12:01:42;;;;;;;;;;;;;;;-3.95;65.71;101079.50;5096140;28;19974;-66
2022/12/26 12:04:07;;;;;;;;;;;;;;;-3.90;65.93;101085.25;5089686;28;19966;-66
2022/12/26 12:06:42;;;;;;;;;;;;;;;-3.83;65.99;101087.31;5105876;28;20008;-67
2022/12/26 12:09:15;;;;;;;;;;;;;;;-3.76;65.97;101091.06;5093598;28;19932;-66
2022/12/26 12:11:45;;;;;;;;;;;;;;;-3.76;66.09;101089.25;5097242;28;20323;-66
2022/12/26 12:14:19;;;;;;;;;;;;;;;-3.82;66.29;101086.31;5094278;28;20351;-65
2022/12/26 12:16:51;;;;;;;;;;;;;;;-3.86;66.24;101085.78;5099811;28;19939;-65
2022/12/26 12:19:26;;;;;;;;;;;;;;;-3.85;66.33;101080.28;5092426;28;19935;-65
2022/12/26 12:22:02;;;;;;;;;;;;;;;-3.85;66.56;101079.44;5097964;28;19989;-66
2022/12/26 12:24:35;;;;;;;;;;;;;;;-3.85;66.41;101082.97;5053325;28;20015;-66
2022/12/26 12:27:08;;;;;;;;;;;;;;;-3.95;66.39;101079.50;5087947;28;20293;-66
2022/12/26 12:29:54;;;;;;;;;;;;;;;-3.99;66.83;101083.44;5090861;28;19928;-66
2022/12/26 12:32:26;;;;;;;;;;;;;;;-4.00;66.78;101077.25;5077579;28;20181;-66
2022/12/26 12:35:07;;;;;;;;;;;;;;;-4.03;66.77;101069.53;5088192;28;20454;-66
2022/12/26 12:37:37;;;;;;;;;;;;;;;-3.95;66.63;101078.66;5087093;28;20287;-66
2022/12/26 12:40:06;;;;;;;;;;;;;;;-3.93;66.94;101076.69;5099081;28;20300;-66
2022/12/26 12:42:39;;;;;;;;;;;;;;;-3.91;66.79;101078.19;5099770;28;19947;-65
2022/12/26 12:45:16;;;;;;;;;;;;;;;-3.95;66.85;101082.16;5091888;28;20077;-65
2022/12/26 12:47:47;;;;;;;;;;;;;;;-3.96;67.02;101077.81;5094980;28;19932;-66
2022/12/26 12:50:17;;;;;;;;;;;;;;;-3.99;67.24;101076.25;5086125;28;20030;-67
2022/12/26 12:52:49;;;;;;;;;;;;;;;-4.06;67.27;101080.53;5089947;28;19935;-66
2022/12/26 12:55:21;;;;;;;;;;;;;;;-4.06;67.41;101085.00;5087369;28;20419;-66
2022/12/26 12:57:49;;;;;;;;;;;;;;;-4.00;67.38;101076.44;5085558;28;20013;-67
2022/12/26 13:00:18;;;;;;;;;;;;;;;-4.00;67.56;101076.44;5101176;28;20280;-65
2022/12/26 13:02:50;;;;;;;;;;;;;;;-4.02;67.52;101079.25;5101342;28;19928;-65
2022/12/26 13:05:25;;;;;;;;;;;;;;;-4.03;67.75;101074.88;5086997;28;19932;-65
2022/12/26 13:07:53;;;;;;;;;;;;;;;-4.02;67.57;101070.41;5083125;28;19932;-67
2022/12/26 13:10:21;;;;;;;;;;;;;;;-4.15;67.68;101050.19;5077815;28;20004;-66
2022/12/26 13:12:48;;;;;;;;;;;;;;;-4.10;67.68;101064.94;5075096;28;19939;-66
2022/12/26 13:15:20;;;;;;;;;;;;;;;-4.14;67.76;101062.56;5084390;28;20046;-67
2022/12/26 13:17:50;;;;;;;;;;;;;;;-4.17;68.08;101060.19;5088235;28;20256;-66
2022/12/26 13:20:18;;;;;;;;;;;;;;;-4.15;68.12;101063.56;5094028;28;20338;-66
2022/12/26 13:25:33;;;;;;;;;;;;;;;-4.32;68.62;101077.69;5093819;28;19935;-66
2022/12/26 13:28:08;;;;;;;;;;;;;;;-4.31;68.83;101074.00;5091970;28;20035;-66
2022/12/26 13:30:34;;;;;;;;;;;;;;;-4.35;69.11;101069.97;5092414;28;19935;-66
2022/12/26 13:33:01;;;;;;;;;;;;;;;-4.38;69.10;101067.56;5095676;28;20026;-66
2022/12/26 13:35:49;;;;;;;;;;;;;;;-4.40;69.49;101075.72;5092579;28;19955;-66
2022/12/26 13:38:15;;;;;;;;;;;;;;;-4.37;69.38;101079.91;5096814;28;20150;-66
2022/12/26 13:40:44;;;;;;;;;;;;;;;-4.34;69.67;101087.66;5103180;28;20063;-66
2022/12/26 13:46:00;;;;;;;;;;;;;;;-4.24;69.62;101084.97;5087219;28;20009;-65
2022/12/26 13:48:45;;;;;;;;;;;;;;;-4.20;69.61;101081.00;5080735;28;19951;-66
2022/12/26 13:51:25;;;;;;;;;;;;;;;-4.16;69.39;101088.59;5087212;28;19924;-66
2022/12/26 13:53:58;;;;;;;;;;;;;;;-4.30;69.56;101071.19;5091200;28;20398;-66
2022/12/26 13:56:39;;;;;;;;;;;;;;;-4.27;69.73;101086.09;5095236;28;19943;-66
2022/12/26 13:59:12;;;;;;;;;;;;;;;-4.34;69.86;101085.00;5095832;28;20394;-65
2022/12/26 14:01:45;;;;;;;;;;;;;;;-4.37;69.98;101085.25;5097445;28;20408;-65
2022/12/26 14:04:23;;;;;;;;;;;;;;;-4.42;69.79;101081.19;5088544;28;19928;-66
2022/12/26 14:07:09;;;;;;;;;;;;;;;-4.49;69.84;101076.59;4378361;28;10000416;-65
2022/12/26 14:09:57;;;;;;;;;;;;;;;-4.49;70.16;101077.44;5082026;28;19943;-65
2022/12/26 14:12:40;;;;;;;;;;;;;;;-4.42;69.92;101075.03;5087023;28;20306;-66
2022/12/26 14:15:15;;;;;;;;;;;;;;;-4.48;69.76;101068.44;5084588;28;20296;-66
2022/12/26 14:17:46;;;;;;;;;;;;;;;-4.50;69.69;101069.56;5090449;28;19958;-66
2022/12/26 14:20:20;;;;;;;;;;;;;;;-4.51;69.45;101071.41;5088869;28;20271;-66
2022/12/26 14:22:51;;;;;;;;;;;;;;;-4.53;69.76;101068.00;5080244;28;20025;-66
2022/12/26 14:25:21;;;;;;;;;;;;;;;-4.50;69.89;101064.22;5079308;28;19929;-66
2022/12/26 14:27:50;;;;;;;;;;;;;;;-4.51;69.91;101068.75;5092622;28;19932;-66
2022/12/26 14:30:21;;;;;;;;;;;;;;;-4.48;70.21;101067.59;5080860;28;19932;-66
2022/12/26 14:32:53;;;;;;;;;;;;;;;-4.51;70.32;101060.72;5078964;28;20036;-66
2022/12/26 14:35:24;;;;;;;;;;;;;;;-4.54;70.39;101065.50;5078540;28;19928;-68
2022/12/26 14:37:56;;;;;;;;;;;;;;;-4.52;70.60;101063.53;5086781;28;20037;-66
2022/12/26 14:40:26;;;;;;;;;;;;;;;-4.52;70.73;101066.19;5077154;28;19928;-66
2022/12/26 14:43:09;;;;;;;;;;;;;;;-4.50;70.75;101061.56;5079601;28;19957;-66
2022/12/26 14:45:42;;;;;;;;;;;;;;;-4.45;70.81;101057.47;5079846;28;19973;-65
2022/12/26 14:48:26;;;;;;;;;;;;;;;-4.47;70.47;101051.44;5088463;28;20012;-65
2022/12/26 14:50:55;;;;;;;;;;;;;;;-4.54;70.64;101046.81;5099556;28;19927;-66
2022/12/26 14:53:29;;;;;;;;;;;;;;;-4.51;70.67;101046.53;5096437;28;20213;-65
2022/12/26 14:55:57;;;;;;;;;;;;;;;-4.49;70.77;101058.75;5081560;28;19963;-65